メインページ
METAR-TAF:

METAR-TAF

空港 :

ベルビル, イリノイ州, アメリカ合衆国

緯度: 38-33N, 経度: 089-51W, 海抜: 140m

現時点の気象観測

当レポートは4分前の16:56(UTC)に作成
無風
気温 24°C
湿度 47%
気圧 1025 hPa
視程: 16.1km
高度21000ftの雲はほとんどない

METAR: KBLV 311656Z AUTO 00000KT 10SM FEW210 24/12 A3028 RMK AO2 SLP255 T02380124 $

時間: 12:00 (17:00 UTC)

予報

当レポートは1時間0分前の16:00(UTC)に作成
予報は31日の 16時(UTC)から 01日の 22時(UTC)まで有効
の風 9kt
視程: 0109m
高度9000ftの雲はほとんどない

TAF: KBLV 311600Z 3116/0122 03006KT 9999 FEW090 QNH3011INS WND 18009KT AFT 0109 TX26/3121Z TN14/0111Z

4,000以上の空港の気象観測と天気予報(METAR報とTAF報)

利用可能な観測所は地図上に黄色い丸と赤い丸で示す。

丸の上にカーソルを重ねると観測所名を参照できる。

次にクリックすると気象観測と天気予報を参照できる。

マップの切り替え:黒色「×」印の緑ボタンをクリックして拡大、「-」印の緑ボタンをクリックして縮小、緑色の三角印をクリックして隣りの地図に切り替え


METAR-TAF: